Time;durP1;ratioP1;P1;durP2;ratioP2;P2;SDS_P1;SDS_P2;PMS_P1;PMS_P2;Temp;Humidity;BMP_temperature;BMP_pressure;BME280_temperature;BME280_humidity;BME280_pressure;Samples;Min_cycle;Max_cycle;Signal;HPM_P1;HPM_P2
2021/06/11 00:02:17;;;;;;;6.65;5.95;;;;;;;15.30;97.03;99546.10;1664160;84;21497;-79
2021/06/11 00:04:44;;;;;;;9.15;5.70;;;;;;;15.28;97.36;99540.05;1648944;85;21203;-76
2021/06/11 00:07:14;;;;;;;9.40;6.20;;;;;;;15.28;97.58;99548.00;1649290;87;21412;-76
2021/06/11 00:09:41;;;;;;;7.67;5.10;;;;;;;15.29;98.09;99546.19;1649187;87;21029;-77
2021/06/11 00:12:09;;;;;;;6.10;5.50;;;;;;;15.29;97.86;99547.03;1649180;85;21079;-76
2021/06/11 00:14:37;;;;;;;9.70;5.17;;;;;;;15.31;97.83;99543.81;1648850;87;21036;-76
2021/06/11 00:17:07;;;;;;;10.75;4.90;;;;;;;15.31;97.96;99551.77;1652273;80;21028;31
2021/06/11 00:19:34;;;;;;;6.25;5.20;;;;;;;15.33;97.75;99551.67;1661799;86;20993;-78
2021/06/11 00:22:01;;;;;;;6.65;4.50;;;;;;;15.36;98.01;99553.27;1661681;86;21081;-77
2021/06/11 00:24:28;;;;;;;6.60;5.90;;;;;;;15.34;97.68;99548.54;1635836;85;21793;-76
2021/06/11 00:26:55;;;;;;;10.48;5.12;;;;;;;15.36;97.58;99551.95;1632494;87;21049;-77
2021/06/11 00:29:22;;;;;;;4.97;4.50;;;;;;;15.35;97.50;99559.06;1632181;87;21507;-77
2021/06/11 00:31:48;;;;;;;6.22;5.25;;;;;;;15.33;97.37;99552.16;1635257;86;21070;-77
2021/06/11 00:34:15;;;;;;;6.95;4.40;;;;;;;15.33;97.51;99554.81;1732454;80;20994;-84
2021/06/11 00:36:42;;;;;;;8.38;6.22;;;;;;;15.31;97.56;99555.75;1747551;82;21089;-80
2021/06/11 00:39:09;;;;;;;5.92;5.33;;;;;;;15.33;97.77;99560.13;1746654;82;20958;-81
2021/06/11 00:41:36;;;;;;;7.72;5.60;;;;;;;15.34;97.67;99563.13;1746738;80;21480;-84
2021/06/11 00:44:03;;;;;;;8.50;5.80;;;;;;;15.33;97.42;99554.33;1746876;82;20984;-83
2021/06/11 00:46:30;;;;;;;4.80;4.30;;;;;;;15.33;97.34;99550.35;1746339;82;21013;-83
2021/06/11 00:51:43;;;;;;;8.53;5.85;;;;;;;15.39;97.56;99557.04;1867914;76;22348;-76
2021/06/11 00:54:11;;;;;;;5.60;4.80;;;;;;;15.35;97.63;99559.06;1823785;78;21103;-79
2021/06/11 00:56:39;;;;;;;8.08;6.53;;;;;;;15.34;97.59;99556.50;1820938;78;21146;-78
2021/06/11 00:59:07;;;;;;;8.63;5.60;;;;;;;15.36;97.69;99565.21;1788816;78;21028;-77
2021/06/11 01:01:34;;;;;;;5.53;4.97;;;;;;;15.35;97.76;99561.72;1821029;78;21024;-78
2021/06/11 01:04:01;;;;;;;6.97;6.20;;;;;;;15.34;97.55;99562.65;1778768;76;21499;-74
2021/06/11 01:06:28;;;;;;;5.10;3.75;;;;;;;15.36;97.82;99566.54;1765284;81;21027;-74
2021/06/11 01:08:56;;;;;;;7.67;5.72;;;;;;;15.34;97.74;99560.00;1788601;79;21975;-75
2021/06/11 01:11:23;;;;;;;8.53;5.87;;;;;;;15.35;97.55;99561.72;1788915;78;21583;-74
2021/06/11 01:13:50;;;;;;;8.08;5.28;;;;;;;15.37;97.80;99558.94;1789214;80;21097;-74
2021/06/11 01:16:17;;;;;;;6.78;5.58;;;;;;;15.36;97.53;99562.56;1788897;80;21165;-74
2021/06/11 01:18:44;;;;;;;7.28;4.37;;;;;;;15.35;97.65;99560.88;1750714;78;21554;-87
2021/06/11 01:21:11;;;;;;;6.72;5.22;;;;;;;15.34;97.81;99556.50;1731816;81;21177;-85
2021/06/11 01:24:07;;;;;;;6.83;6.08;;;;;;;15.34;97.67;99564.45;1731533;82;21060;-81
2021/06/11 01:26:38;;;;;;;5.25;3.67;;;;;;;15.31;97.65;99561.05;1731128;82;21118;-82
2021/06/11 01:29:10;;;;;;;5.62;4.58;;;;;;;15.30;97.82;99567.33;1731635;82;21565;-82
2021/06/11 01:31:40;;;;;;;8.35;5.55;;;;;;;15.30;97.81;99560.69;1731504;82;21014;-83
2021/06/11 01:34:15;;;;;;;4.08;3.67;;;;;;;15.29;97.87;99562.95;1677683;78;21142;-78
2021/06/11 01:36:46;;;;;;;8.18;6.20;;;;;;;15.28;97.95;99559.94;1691037;83;21023;-74
2021/06/11 01:39:15;;;;;;;11.90;6.40;;;;;;;15.29;98.03;99568.25;1680439;85;21029;-74
2021/06/11 01:41:42;;;;;;;7.17;6.00;;;;;;;15.30;98.47;99569.13;1680196;85;22230;-74
2021/06/11 01:44:11;;;;;;;9.03;5.90;;;;;;;15.29;98.06;99571.39;1680395;85;21061;-74
2021/06/11 01:46:40;;;;;;;5.63;4.67;;;;;;;15.29;98.27;99570.91;1653630;85;22790;-75
2021/06/11 01:49:09;;;;;;;5.22;4.72;;;;;;;15.29;98.31;99570.91;1683092;81;21076;-76
2021/06/11 01:51:37;;;;;;;6.90;6.00;;;;;;;15.28;98.09;99563.92;1731498;81;21059;-75
2021/06/11 01:54:07;;;;;;;5.25;4.70;;;;;;;15.27;98.12;99570.16;1736901;82;21060;-75
2021/06/11 01:56:34;;;;;;;8.50;6.47;;;;;;;15.26;97.96;99565.81;1698027;83;21078;-75
2021/06/11 01:59:02;;;;;;;8.43;6.05;;;;;;;15.27;98.26;99567.50;1734171;82;21327;-75
2021/06/11 02:01:29;;;;;;;5.05;4.08;;;;;;;15.28;98.48;99573.20;1694376;82;21067;-75
2021/06/11 02:03:56;;;;;;;8.15;5.92;;;;;;;15.29;98.25;99576.22;1664181;81;21104;-78
2021/06/11 02:06:23;;;;;;;11.12;6.67;;;;;;;15.29;98.35;99572.23;1621835;88;21636;-80
2021/06/11 02:08:52;;;;;;;8.18;5.95;;;;;;;15.30;98.48;99571.78;1656070;85;21032;-81
2021/06/11 02:11:20;;;;;;;9.25;6.65;;;;;;;15.31;98.29;99578.78;1655905;86;21495;-80
2021/06/11 02:13:52;;;;;;;4.53;4.12;;;;;;;15.31;98.49;99579.63;1655827;86;21064;-77
2021/06/11 02:16:21;;;;;;;7.58;6.17;;;;;;;15.32;98.30;99575.16;1655885;85;21136;-80
2021/06/11 02:18:48;;;;;;;5.85;5.25;;;;;;;15.34;98.57;99575.07;1689522;79;21115;-74
2021/06/11 02:21:17;;;;;;;8.30;5.70;;;;;;;15.33;98.71;99579.53;1711531;83;21565;-75
2021/06/11 02:23:44;;;;;;;11.38;5.97;;;;;;;15.36;98.37;99585.11;1690675;83;21943;-74
2021/06/11 02:26:13;;;;;;;4.25;3.77;;;;;;;15.37;98.62;99586.80;1681172;85;21057;-73
2021/06/11 02:28:40;;;;;;;8.25;6.20;;;;;;;15.38;98.61;99588.52;1681320;85;21651;-74
2021/06/11 02:31:07;;;;;;;6.97;6.00;;;;;;;15.39;98.65;99579.59;1681262;84;21049;-74
2021/06/11 02:33:34;;;;;;;7.58;6.03;;;;;;;15.38;98.99;99580.08;1723137;78;21019;-80
2021/06/11 02:36:01;;;;;;;9.70;6.12;;;;;;;15.41;98.78;99589.15;1791671;80;21958;-82
2021/06/11 02:38:30;;;;;;;6.17;4.65;;;;;;;15.42;98.71;99586.89;1792040;80;21030;-83
2021/06/11 02:40:57;;;;;;;7.87;6.50;;;;;;;15.42;98.64;99589.55;1792082;78;21114;-84
2021/06/11 02:43:24;;;;;;;9.40;6.78;;;;;;;15.45;98.56;99597.29;1791947;80;21042;-81
2021/06/11 02:46:05;;;;;;;8.60;3.92;;;;;;;15.45;98.68;99595.13;1792321;80;21581;-82
2021/06/11 02:48:37;;;;;;;10.50;6.60;;;;;;;15.46;98.59;99584.87;1775817;78;21142;-75
2021/06/11 02:51:24;;;;;;;6.72;5.87;;;;;;;15.50;98.68;99595.66;1758986;80;28989;-75
2021/06/11 02:53:51;;;;;;;5.53;3.80;;;;;;;15.53;99.03;99600.30;1756618;80;21013;-73
2021/06/11 02:56:25;;;;;;;7.97;6.35;;;;;;;15.54;98.79;99595.84;1759418;81;21013;-75
2021/06/11 02:59:05;;;;;;;7.75;5.83;;;;;;;15.59;98.89;99599.03;1756894;81;21593;-75
2021/06/11 03:01:35;;;;;;;5.92;4.53;;;;;;;15.61;98.87;99597.13;1740326;80;21129;-75
2021/06/11 03:04:03;;;;;;;12.82;6.60;;;;;;;15.62;98.73;99597.52;1715582;79;21060;-86
2021/06/11 03:06:30;;;;;;;6.70;5.55;;;;;;;15.66;98.68;99600.33;1689382;84;21057;-86
2021/06/11 03:08:59;;;;;;;10.98;6.37;;;;;;;15.67;98.59;99602.05;1689302;84;21894;-84
2021/06/11 03:11:30;;;;;;;10.85;6.35;;;;;;;15.68;98.24;99595.77;1689320;83;21085;-87
2021/06/11 03:13:58;;;;;;;7.50;5.78;;;;;;;15.71;98.62;99603.58;1689269;83;21546;-83
2021/06/11 03:16:26;;;;;;;8.53;6.78;;;;;;;15.72;98.36;99603.09;1670111;85;21045;-82
2021/06/11 03:18:58;;;;;;;8.40;6.10;;;;;;;15.77;98.43;99604.12;1697302;79;21072;-76
2021/06/11 03:21:30;;;;;;;5.60;4.92;;;;;;;15.77;98.58;99609.42;1671010;85;21080;-76
2021/06/11 03:24:11;;;;;;;9.30;6.70;;;;;;;15.77;98.12;99600.14;1672864;85;21147;-76
2021/06/11 03:27:07;;;;;;;5.60;4.53;;;;;;;15.79;98.27;99601.73;1673696;85;22242;-76
2021/06/11 03:30:52;;;;;;;11.80;7.45;;;;;;;15.86;98.24;99604.34;1784962;79;22284;-77
2021/06/11 03:33:28;;;;;;;7.58;6.22;;;;;;;15.81;97.99;99609.60;1733934;79;21088;-78
2021/06/11 03:36:04;;;;;;;8.18;6.87;;;;;;;15.81;97.68;99613.59;1681123;85;21154;-82
2021/06/11 03:38:31;;;;;;;12.37;5.78;;;;;;;15.83;97.79;99613.01;1661718;84;22148;-80
2021/06/11 03:40:59;;;;;;;8.03;6.55;;;;;;;15.83;97.87;99617.84;1670667;84;21033;-78
2021/06/11 03:43:28;;;;;;;8.00;6.42;;;;;;;15.86;97.83;99619.44;1689400;84;21610;-76
2021/06/11 03:45:56;;;;;;;13.98;5.80;;;;;;;15.88;98.26;99613.55;1689753;84;21131;-76
2021/06/11 03:48:23;;;;;;;8.23;6.85;;;;;;;15.88;97.88;99610.41;1678617;81;21149;-76
2021/06/11 03:50:51;;;;;;;6.78;5.37;;;;;;;15.92;97.72;99615.05;1668770;84;21576;-75
2021/06/11 03:53:21;;;;;;;8.58;5.70;;;;;;;15.96;97.96;99617.84;1686356;84;21021;-75
2021/06/11 03:55:53;;;;;;;8.23;6.35;;;;;;;15.99;97.47;99618.98;1682692;84;21648;-79
2021/06/11 03:58:41;;;;;;;8.00;6.10;;;;;;;16.02;97.51;99617.44;1656236;85;21538;-72
2021/06/11 04:01:12;;;;;;;10.98;7.00;;;;;;;16.08;97.44;99618.36;1626791;87;22252;-73
2021/06/11 04:03:40;;;;;;;13.35;6.60;;;;;;;16.14;96.90;99618.41;1700765;80;21601;-72
2021/06/11 04:06:24;;;;;;;8.13;6.62;;;;;;;16.21;96.72;99620.17;1740874;82;21092;-71
2021/06/11 04:08:53;;;;;;;7.90;6.72;;;;;;;16.26;96.61;99623.36;1722577;82;21026;-72
2021/06/11 04:11:27;;;;;;;15.40;6.83;;;;;;;16.35;96.01;99621.39;1718854;83;21079;-72
2021/06/11 04:14:00;;;;;;;8.40;5.75;;;;;;;16.42;96.16;99630.64;1717305;83;21112;-73
2021/06/11 04:16:37;;;;;;;8.63;7.40;;;;;;;16.48;95.46;99627.56;1716614;83;21081;-70
2021/06/11 04:19:04;;;;;;;7.30;6.45;;;;;;;16.56;95.16;99619.92;1722893;80;21114;-71
2021/06/11 04:21:33;;;;;;;12.00;6.87;;;;;;;16.64;94.92;99626.51;1751256;81;21060;-74
2021/06/11 04:24:08;;;;;;;10.90;6.80;;;;;;;16.69;94.10;99627.03;1748113;81;21094;-73
2021/06/11 04:26:37;;;;;;;9.53;6.47;;;;;;;16.76;94.02;99627.80;1741927;81;21237;-73
2021/06/11 04:29:16;;;;;;;8.98;6.37;;;;;;;16.81;93.36;99631.50;1758461;81;21112;-72
2021/06/11 04:31:44;;;;;;;11.85;6.67;;;;;;;16.86;92.96;99629.36;1733312;81;21059;-71
2021/06/11 04:34:16;;;;;;;8.80;6.58;;;;;;;16.94;92.68;99628.34;1722906;78;21133;-71
2021/06/11 04:36:44;;;;;;;7.90;6.33;;;;;;;17.03;92.26;99628.66;1683300;83;21583;-70
2021/06/11 04:39:13;;;;;;;10.15;6.15;;;;;;;17.11;91.48;99628.94;1695813;83;21151;-71
2021/06/11 04:41:40;;;;;;;11.48;5.55;;;;;;;17.21;91.43;99633.98;1641248;87;21108;-70
2021/06/11 04:44:08;;;;;;;8.18;6.58;;;;;;;17.30;90.85;99637.31;1667871;84;21097;-70
2021/06/11 04:46:35;;;;;;;8.90;6.72;;;;;;;17.43;89.96;99635.07;1646137;86;21090;-70
2021/06/11 04:49:05;;;;;;;8.28;6.53;;;;;;;17.50;88.91;99633.66;1709329;79;21601;-73
2021/06/11 04:51:36;;;;;;;9.15;6.47;;;;;;;17.51;88.82;99635.37;1711950;82;21087;-72
2021/06/11 04:54:03;;;;;;;9.08;6.53;;;;;;;17.61;88.93;99631.89;1695384;82;21138;-73
2021/06/11 04:56:29;;;;;;;8.28;6.15;;;;;;;17.77;88.47;99632.94;1682865;83;21143;-73
2021/06/11 04:58:58;;;;;;;7.12;6.40;;;;;;;17.92;87.86;99628.78;1686931;83;21061;-71
2021/06/11 05:01:26;;;;;;;8.13;6.72;;;;;;;18.07;87.37;99629.45;1686512;83;21134;-71
2021/06/11 05:03:55;;;;;;;8.05;6.40;;;;;;;18.22;86.16;99625.13;1683738;82;21154;-72
2021/06/11 05:06:22;;;;;;;7.72;5.87;;;;;;;18.38;84.82;99631.46;1693883;82;21087;-72
2021/06/11 05:08:49;;;;;;;11.22;5.72;;;;;;;18.55;84.68;99626.14;1634191;87;21548;-74
2021/06/11 05:11:16;;;;;;;7.67;5.60;;;;;;;18.85;83.53;99624.73;1614862;87;21125;-73
2021/06/11 05:13:45;;;;;;;6.25;5.62;;;;;;;19.12;82.22;99623.47;1581799;89;21075;-73
2021/06/11 05:16:11;;;;;;;8.68;5.78;;;;;;;19.34;80.95;99623.43;1647973;85;21159;-75
2021/06/11 05:18:39;;;;;;;5.47;4.70;;;;;;;19.55;80.04;99618.64;1671790;82;21086;-72
2021/06/11 05:21:05;;;;;;;9.40;5.17;;;;;;;19.68;78.93;99622.00;1685963;85;20982;-73
2021/06/11 05:23:32;;;;;;;8.65;5.00;;;;;;;19.83;78.23;99623.44;1687467;83;21115;-72
2021/06/11 05:25:59;;;;;;;6.65;4.20;;;;;;;19.93;77.76;99626.17;1683343;85;21046;-72
2021/06/11 05:28:26;;;;;;;5.55;4.87;;;;;;;20.04;77.17;99626.63;1683765;85;21084;-71
2021/06/11 05:30:54;;;;;;;7.75;4.78;;;;;;;20.15;76.25;99623.86;1688853;83;20994;-73
2021/06/11 05:33:41;;;;;;;5.75;4.12;;;;;;;20.19;75.12;99618.61;1683793;85;21030;-73
2021/06/11 05:36:08;;;;;;;6.83;5.30;;;;;;;20.15;75.16;99627.87;1687243;84;21023;-73
2021/06/11 05:38:35;;;;;;;10.25;5.40;;;;;;;20.17;74.66;99625.91;1620441;86;20981;-76
2021/06/11 05:41:03;;;;;;;13.40;5.72;;;;;;;20.11;75.01;99625.13;1676721;84;21318;-76
2021/06/11 05:43:34;;;;;;;5.30;4.80;;;;;;;20.09;75.19;99629.75;1685814;83;21072;-74
2021/06/11 05:46:01;;;;;;;6.25;4.75;;;;;;;20.13;75.14;99631.19;1677517;84;21543;-73
2021/06/11 05:48:36;;;;;;;8.95;5.00;;;;;;;20.11;74.84;99635.31;1681473;83;21012;-73
2021/06/11 05:51:03;;;;;;;7.47;4.67;;;;;;;20.10;74.77;99625.59;1719661;83;20908;-73
2021/06/11 05:53:30;;;;;;;7.17;4.20;;;;;;;20.12;74.81;99626.80;1754068;80;21792;-75
2021/06/11 05:56:01;;;;;;;8.55;5.37;;;;;;;20.17;74.55;99629.92;1755466;81;21011;-75
2021/06/11 05:58:28;;;;;;;6.50;4.58;;;;;;;20.24;74.57;99627.08;1726136;81;20971;-76
2021/06/11 06:00:55;;;;;;;7.58;4.37;;;;;;;20.38;74.13;99630.41;1711206;83;21483;-73
2021/06/11 06:03:22;;;;;;;8.40;4.78;;;;;;;20.58;73.20;99632.75;1749813;81;21014;-73
2021/06/11 06:05:49;;;;;;;7.87;5.12;;;;;;;20.71;71.52;99634.72;1656815;81;21116;-82
2021/06/11 06:08:16;;;;;;;6.33;4.50;;;;;;;20.76;71.60;99636.98;1667235;85;20949;-81
2021/06/11 06:10:42;;;;;;;7.00;4.60;;;;;;;20.84;71.13;99645.17;1705470;82;20991;-80
2021/06/11 06:13:09;;;;;;;6.45;4.83;;;;;;;20.85;70.31;99636.19;1702927;82;20983;-78
2021/06/11 06:15:37;;;;;;;9.40;4.47;;;;;;;20.85;69.76;99634.34;1701862;82;20977;-80
2021/06/11 06:18:05;;;;;;;13.40;5.58;;;;;;;20.90;69.45;99641.48;1711446;82;21107;-80
2021/06/11 06:20:32;;;;;;;10.40;4.60;;;;;;;20.95;69.76;99639.23;1680461;81;20994;-74
2021/06/11 06:22:59;;;;;;;4.60;3.50;;;;;;;21.08;69.46;99634.16;1659851;85;21042;-75
2021/06/11 06:25:26;;;;;;;4.15;3.75;;;;;;;21.31;69.44;99640.13;1676620;85;20974;-74
2021/06/11 06:27:52;;;;;;;6.53;4.12;;;;;;;21.53;68.67;99637.25;1655326;84;21517;-75
2021/06/11 06:30:22;;;;;;;6.35;3.50;;;;;;;21.76;67.08;99636.50;1629683;87;21095;-75
2021/06/11 06:32:49;;;;;;;6.05;4.17;;;;;;;21.87;65.66;99635.98;1609124;87;21109;-79
2021/06/11 06:35:17;;;;;;;4.47;3.33;;;;;;;21.90;65.11;99633.89;1695639;80;21037;-77
2021/06/11 06:37:44;;;;;;;4.50;3.65;;;;;;;21.98;63.99;99642.05;1763764;80;21048;-76
2021/06/11 06:40:11;;;;;;;5.33;3.65;;;;;;;22.04;63.88;99643.80;1757776;81;21531;-77
2021/06/11 06:42:39;;;;;;;6.53;3.80;;;;;;;22.03;62.17;99646.14;1761651;81;21128;-78
2021/06/11 06:45:13;;;;;;;4.92;3.33;;;;;;;22.05;62.84;99645.52;1762115;81;20958;-77
2021/06/11 06:47:44;;;;;;;5.40;3.33;;;;;;;22.18;63.18;99638.03;1774039;80;20860;-77
2021/06/11 06:50:17;;;;;;;4.50;3.20;;;;;;;22.34;60.67;99635.63;1737460;79;20978;-76
2021/06/11 06:52:44;;;;;;;6.83;3.50;;;;;;;22.36;60.51;99640.36;1698980;84;20990;-77
2021/06/11 06:55:12;;;;;;;10.82;3.42;;;;;;;22.34;60.03;99647.70;1696792;84;21182;-76
2021/06/11 06:57:39;;;;;;;4.55;3.35;;;;;;;22.30;61.00;99640.92;1702497;83;20965;-78
2021/06/11 07:00:07;;;;;;;5.03;3.12;;;;;;;22.35;60.39;99641.83;1723321;83;21029;-74
2021/06/11 07:02:35;;;;;;;6.17;3.22;;;;;;;22.39;61.20;99644.59;1724138;83;20918;-74
2021/06/11 07:05:01;;;;;;;7.47;3.37;;;;;;;22.61;61.31;99638.02;1717454;81;21459;-74
2021/06/11 07:07:28;;;;;;;4.17;3.20;;;;;;;22.87;60.32;99648.09;1684062;83;21075;-74
2021/06/11 07:09:55;;;;;;;8.43;3.15;;;;;;;23.05;59.46;99646.34;1675467;85;21024;-76
2021/06/11 07:12:24;;;;;;;4.12;3.10;;;;;;;23.16;58.64;99646.66;1683388;83;21099;-77
2021/06/11 07:14:51;;;;;;;5.67;2.83;;;;;;;23.18;57.94;99646.84;1687538;83;20951;-76
2021/06/11 07:17:18;;;;;;;11.12;3.60;;;;;;;23.24;57.63;99646.26;1663391;84;21789;-74
2021/06/11 07:19:45;;;;;;;4.37;3.30;;;;;;;23.29;57.17;99650.34;1676000;80;21129;-74
2021/06/11 07:22:12;;;;;;;5.05;3.25;;;;;;;23.25;57.63;99648.44;1703791;82;21020;-75
2021/06/11 07:24:39;;;;;;;5.37;3.35;;;;;;;23.35;57.93;99653.28;1689764;83;21373;-74
2021/06/11 07:27:07;;;;;;;3.58;2.87;;;;;;;23.38;56.55;99648.09;1702029;83;21051;-76
2021/06/11 07:29:40;;;;;;;4.03;2.75;;;;;;;23.39;56.57;99648.43;1702695;82;21050;-75
2021/06/11 07:32:06;;;;;;;3.42;2.58;;;;;;;23.46;55.68;99645.48;1711671;83;21083;-75
2021/06/11 07:34:32;;;;;;;2.80;2.37;;;;;;;23.50;54.86;99646.88;1698573;80;21802;-77
2021/06/11 07:36:59;;;;;;;6.47;2.77;;;;;;;23.61;55.94;99650.69;1723023;82;20966;-76
2021/06/11 07:39:27;;;;;;;3.58;2.52;;;;;;;23.79;54.51;99648.55;1718729;82;21005;-75
2021/06/11 07:41:54;;;;;;;4.17;2.47;;;;;;;23.88;53.59;99647.63;1703179;82;21989;-75
2021/06/11 07:44:22;;;;;;;6.90;3.30;;;;;;;23.95;54.04;99644.67;1713512;82;21258;-75
2021/06/11 07:46:49;;;;;;;3.47;2.62;;;;;;;24.20;53.01;99648.41;1723184;82;21008;-75
2021/06/11 07:49:16;;;;;;;7.60;2.70;;;;;;;24.46;53.46;99637.66;1726230;80;20921;-75
2021/06/11 07:51:43;;;;;;;8.15;3.12;;;;;;;24.77;53.06;99640.38;1669448;84;20998;-75
2021/06/11 07:54:10;;;;;;;3.33;2.62;;;;;;;25.09;50.88;99641.04;1668359;84;21073;-74
2021/06/11 07:56:38;;;;;;;4.65;2.80;;;;;;;25.20;50.15;99643.98;1681836;83;21486;-72
2021/06/11 07:59:05;;;;;;;4.33;2.60;;;;;;;25.29;49.57;99639.80;1680540;84;21009;-71
2021/06/11 08:01:33;;;;;;;4.12;2.80;;;;;;;25.49;49.74;99644.41;1679902;84;21006;-72
2021/06/11 08:04:20;;;;;;;3.50;2.70;;;;;;;25.66;47.77;99650.67;1692359;84;21420;-72
2021/06/11 08:06:47;;;;;;;4.50;2.47;;;;;;;25.69;48.46;99650.33;1693843;83;21087;-73
2021/06/11 08:09:15;;;;;;;4.62;3.10;;;;;;;25.78;48.66;99647.14;1694527;84;21354;-74
2021/06/11 08:11:41;;;;;;;13.55;3.33;;;;;;;25.83;47.65;99645.30;1697244;82;21027;-74
2021/06/11 08:14:08;;;;;;;3.25;2.75;;;;;;;25.80;47.73;99646.99;1674433;83;20990;-73
2021/06/11 08:16:35;;;;;;;4.22;2.90;;;;;;;25.77;47.39;99655.39;1676137;84;21038;-74
2021/06/11 08:19:22;;;;;;;4.42;3.00;;;;;;;25.56;47.71;99656.73;1678627;84;21482;-73
2021/06/11 08:21:49;;;;;;;5.53;2.55;;;;;;;25.48;48.26;99651.30;1615473;87;21128;-73
2021/06/11 08:24:16;;;;;;;4.78;3.10;;;;;;;25.42;48.17;99654.65;1620506;87;21503;-74
2021/06/11 08:26:43;;;;;;;4.45;2.85;;;;;;;25.36;48.69;99652.63;1592058;87;21030;-74
2021/06/11 08:29:14;;;;;;;7.40;3.02;;;;;;;25.41;48.99;99656.51;1568132;90;21050;-75
2021/06/11 08:31:38;;;;;;;11.12;3.35;;;;;;;25.38;48.46;99657.36;1565663;89;21032;-72
2021/06/11 08:34:26;;;;;;;5.12;3.10;;;;;;;25.29;48.73;99654.62;1612976;87;21125;-82
2021/06/11 08:36:53;;;;;;;4.65;2.95;;;;;;;25.15;49.23;99656.56;1668294;84;21025;-76
2021/06/11 08:39:20;;;;;;;5.70;2.92;;;;;;;25.05;49.01;99649.97;1653216;84;21493;-74
2021/06/11 08:41:47;;;;;;;4.10;3.37;;;;;;;24.91;49.32;99658.63;1634090;84;21051;-71
2021/06/11 08:44:14;;;;;;;8.85;3.45;;;;;;;24.78;50.11;99658.22;1636772;85;21095;-72
2021/06/11 08:46:41;;;;;;;4.90;3.37;;;;;;;24.72;50.18;99658.36;1633103;85;21173;-72
2021/06/11 08:49:18;;;;;;;5.22;3.10;;;;;;;24.84;50.61;99661.62;1643068;85;21011;-75
2021/06/11 08:51:45;;;;;;;7.85;3.40;;;;;;;24.96;49.68;99658.15;1648847;83;20982;-72
2021/06/11 08:54:12;;;;;;;3.95;2.58;;;;;;;25.03;48.82;99659.19;1639548;85;21517;-70
2021/06/11 08:56:40;;;;;;;9.45;3.17;;;;;;;24.96;49.48;99660.84;1633439;87;21366;-72
2021/06/11 08:59:07;;;;;;;5.03;2.95;;;;;;;25.06;48.09;99658.37;1635260;86;21099;-71
2021/06/11 09:01:34;;;;;;;5.20;2.95;;;;;;;25.54;47.99;99657.40;1634885;86;21026;-72
2021/06/11 09:04:01;;;;;;;4.33;2.70;;;;;;;25.96;46.38;99647.03;1629636;87;21099;-71
2021/06/11 09:06:28;;;;;;;6.67;2.98;;;;;;;26.01;45.43;99647.36;1714223;82;21005;-73
2021/06/11 09:08:57;;;;;;;5.03;2.92;;;;;;;26.02;46.21;99654.47;1723929;80;20998;-75
2021/06/11 09:11:32;;;;;;;7.90;2.75;;;;;;;26.36;44.36;99653.42;1722445;82;21091;-73
2021/06/11 09:14:07;;;;;;;3.67;2.33;;;;;;;26.93;42.73;99652.49;1726817;81;20982;-72
2021/06/11 09:16:51;;;;;;;3.35;2.50;;;;;;;27.40;42.20;99633.56;1740631;80;21468;-71
2021/06/11 09:19:40;;;;;;;5.92;3.12;;;;;;;27.81;39.89;99636.49;1735447;82;21570;-71
2021/06/11 09:22:07;;;;;;;4.03;2.30;;;;;;;27.96;39.77;99631.19;1687055;82;21036;-73
2021/06/11 09:24:36;;;;;;;4.15;2.72;;;;;;;27.67;40.25;99631.34;1699438;83;21166;-73
2021/06/11 09:27:10;;;;;;;6.37;2.70;;;;;;;27.62;40.62;99635.11;1647217;85;21010;-72
2021/06/11 09:29:46;;;;;;;3.37;2.80;;;;;;;27.58;41.42;99640.55;1700633;84;21473;-74
2021/06/11 09:32:22;;;;;;;4.33;2.58;;;;;;;27.36;41.93;99630.05;1676690;83;20938;-73
2021/06/11 09:34:55;;;;;;;3.15;2.30;;;;;;;27.12;42.65;99629.61;1709342;80;21130;-73
2021/06/11 09:37:34;;;;;;;2.75;2.30;;;;;;;26.92;42.89;99630.04;1646479;84;21135;-73
2021/06/11 09:40:00;;;;;;;3.55;2.60;;;;;;;26.85;43.73;99625.48;1662425;83;20995;-72
2021/06/11 09:42:32;;;;;;;5.40;2.73;;;;;;;27.12;43.58;99626.91;1658706;84;21488;-72
2021/06/11 09:45:08;;;;;;;3.37;2.67;;;;;;;27.60;42.35;99623.62;1643958;84;21502;-73
2021/06/11 09:47:43;;;;;;;3.05;2.70;;;;;;;27.86;39.31;99621.97;1662949;84;21041;-73
2021/06/11 09:50:20;;;;;;;4.00;2.62;;;;;;;27.81;40.01;99614.84;1676422;80;21159;-72
2021/06/11 09:53:04;;;;;;;4.40;2.83;;;;;;;27.80;40.44;99615.89;1694649;84;21055;-71
2021/06/11 09:55:51;;;;;;;10.13;2.85;;;;;;;27.73;41.04;99616.28;1710703;82;21019;-71
2021/06/11 09:58:24;;;;;;;3.77;2.83;;;;;;;27.79;40.94;99616.41;1729776;82;21030;-71
2021/06/11 10:01:01;;;;;;;8.20;2.72;;;;;;;27.38;39.96;99616.67;1736994;82;21011;-71
2021/06/11 10:03:34;;;;;;;6.90;2.67;;;;;;;26.99;41.13;99618.86;1737321;82;21154;-70
2021/06/11 10:06:02;;;;;;;6.47;2.60;;;;;;;26.96;40.21;99615.17;1724269;80;21046;-71
2021/06/11 10:08:32;;;;;;;6.45;2.65;;;;;;;26.99;40.95;99620.22;1708477;83;21042;-71
2021/06/11 10:11:01;;;;;;;6.37;2.33;;;;;;;27.12;40.10;99619.63;1685828;85;21001;-72
2021/06/11 10:13:28;;;;;;;6.08;2.60;;;;;;;27.15;40.18;99618.47;1694938;83;21041;-71
2021/06/11 10:15:58;;;;;;;2.85;2.40;;;;;;;27.27;40.13;99619.77;1719378;83;21106;-71
2021/06/11 10:18:25;;;;;;;5.55;3.00;;;;;;;27.27;39.46;99619.77;1718680;83;20994;-71
2021/06/11 10:20:52;;;;;;;2.58;2.37;;;;;;;27.15;41.24;99617.95;1700006;80;21017;-73
2021/06/11 10:23:22;;;;;;;5.17;2.85;;;;;;;27.38;40.43;99615.33;1649617;86;21002;-74
2021/06/11 10:25:53;;;;;;;4.30;2.67;;;;;;;27.55;40.20;99619.27;1637033;87;21546;-73
2021/06/11 10:28:25;;;;;;;3.50;2.70;;;;;;;27.53;39.74;99613.20;1606499;89;21134;-75
2021/06/11 10:31:02;;;;;;;6.05;2.52;;;;;;;27.47;40.10;99614.77;1619348;87;21018;-74
2021/06/11 10:33:49;;;;;;;7.80;3.55;;;;;;;27.54;39.85;99614.91;1632741;87;21545;-75
2021/06/11 10:36:32;;;;;;;3.20;2.30;;;;;;;27.49;39.92;99615.92;1673169;81;20998;-73
2021/06/11 10:39:12;;;;;;;4.83;2.90;;;;;;;27.64;39.92;99611.95;1706571;83;21414;-72
2021/06/11 10:42:03;;;;;;;7.25;2.80;;;;;;;27.61;40.04;99613.16;1676413;84;21167;-72
2021/06/11 10:44:45;;;;;;;;;;;;;;;27.50;40.66;99610.34;1744934;80;21010;-71
2021/06/11 10:47:23;;;;;;;7.55;2.52;;;;;;;27.27;39.45;99610.31;1704530;84;20173;-73
2021/06/11 10:50:01;;;;;;;3.87;2.40;;;;;;;27.15;40.63;99606.30;1702227;81;21014;-70
2021/06/11 10:52:42;;;;;;;7.50;2.60;;;;;;;27.48;40.57;99610.20;1634075;87;21018;-72
2021/06/11 10:55:21;;;;;;;6.35;2.67;;;;;;;27.80;39.42;99606.42;1667473;85;21820;-77
2021/06/11 10:58:00;;;;;;;5.60;2.77;;;;;;;28.11;38.53;99599.58;1667164;86;21031;-72
2021/06/11 11:00:37;;;;;;;3.65;2.80;;;;;;;28.18;38.46;99588.36;1663760;86;21014;-72
2021/06/11 11:03:05;;;;;;;3.75;2.50;;;;;;;28.20;38.19;99597.12;1659171;84;21031;-73
2021/06/11 11:05:34;;;;;;;4.45;2.62;;;;;;;28.12;38.73;99593.67;1669970;80;21468;-81
2021/06/11 11:08:06;;;;;;;2.35;1.95;;;;;;;28.11;39.70;99592.80;1682530;83;21124;-81
2021/06/11 11:10:36;;;;;;;4.45;2.33;;;;;;;28.22;39.34;99595.07;1684232;83;21062;-80
2021/06/11 11:13:07;;;;;;;2.93;2.23;;;;;;;28.52;38.58;99587.53;1689682;83;21018;-81
2021/06/11 11:15:38;;;;;;;4.53;2.20;;;;;;;28.72;37.90;99591.36;1685370;83;21466;-81
2021/06/11 11:18:25;;;;;;;3.40;2.40;;;;;;;28.79;37.97;99598.23;1697554;82;20986;-80
2021/06/11 11:20:52;;;;;;;4.08;2.20;;;;;;;28.91;38.01;99591.30;1674217;83;21156;-81
2021/06/11 11:23:23;;;;;;;5.87;2.22;;;;;;;29.02;37.83;99589.45;1671150;83;21000;-75
2021/06/11 11:25:51;;;;;;;3.62;2.12;;;;;;;29.17;37.95;99591.33;1675342;83;20979;-76
2021/06/11 11:28:18;;;;;;;2.20;2.00;;;;;;;29.03;37.93;99588.45;1674016;84;20991;-76
2021/06/11 11:30:46;;;;;;;7.00;2.40;;;;;;;28.88;37.60;99586.27;1672679;83;21042;-76
2021/06/11 11:33:14;;;;;;;5.10;2.00;;;;;;;28.55;38.38;99589.86;1682871;83;21150;-75
2021/06/11 11:35:43;;;;;;;4.22;1.90;;;;;;;28.31;38.28;99585.53;1676060;80;21017;-75
2021/06/11 11:38:11;;;;;;;6.17;2.20;;;;;;;28.23;37.72;99580.53;1736706;82;20953;-73
2021/06/11 11:40:40;;;;;;;2.42;1.70;;;;;;;28.09;37.71;99573.23;1743539;81;20941;-74
2021/06/11 11:43:08;;;;;;;1.90;1.75;;;;;;;27.92;39.27;99573.03;1730165;81;21042;-73
2021/06/11 11:45:36;;;;;;;4.20;1.98;;;;;;;28.06;38.24;99573.58;1737198;81;21549;-75
2021/06/11 11:48:05;;;;;;;3.67;1.80;;;;;;;28.30;38.85;99570.29;1733245;81;20990;-75
2021/06/11 11:50:34;;;;;;;3.52;1.87;;;;;;;28.43;37.52;99572.68;1730444;82;20991;-74